sensor_id;sensor_type;location;lat;lon;timestamp;P1;durP1;ratioP1;P2;durP2;ratioP2
1959;SDS011;980;43.794;11.212;2022-08-01T09:07:24;3.75;;;3.75;;
1959;SDS011;980;43.794;11.212;2022-08-01T09:09:51;4.00;;;4.00;;
1959;SDS011;980;43.794;11.212;2022-08-01T09:12:17;3.00;;;3.00;;
1959;SDS011;980;43.794;11.212;2022-08-01T09:14:46;3.00;;;3.00;;
1959;SDS011;980;43.794;11.212;2022-08-01T09:17:11;4.20;;;4.20;;
1959;SDS011;980;43.794;11.212;2022-08-01T09:19:41;3.00;;;3.00;;
1959;SDS011;980;43.794;11.212;2022-08-01T09:22:08;2.80;;;2.80;;
1959;SDS011;980;43.794;11.212;2022-08-01T09:24:34;3.80;;;3.80;;
1959;SDS011;980;43.794;11.212;2022-08-01T09:27:00;3.40;;;3.40;;
1959;SDS011;980;43.794;11.212;2022-08-01T09:29:30;3.00;;;3.00;;
1959;SDS011;980;43.794;11.212;2022-08-01T09:31:56;2.80;;;1.80;;
1959;SDS011;980;43.794;11.212;2022-08-01T09:34:27;3.00;;;3.00;;
1959;SDS011;980;43.794;11.212;2022-08-01T09:36:57;3.20;;;2.60;;
1959;SDS011;980;43.794;11.212;2022-08-01T09:39:44;3.00;;;3.00;;
1959;SDS011;980;43.794;11.212;2022-08-01T09:42:23;2.00;;;2.00;;
1959;SDS011;980;43.794;11.212;2022-08-01T09:44:49;2.80;;;2.80;;
1959;SDS011;980;43.794;11.212;2022-08-01T09:47:15;3.50;;;3.50;;
1959;SDS011;980;43.794;11.212;2022-08-01T09:49:41;4.00;;;2.00;;
1959;SDS011;980;43.794;11.212;2022-08-01T09:52:17;2.40;;;1.80;;
1959;SDS011;980;43.794;11.212;2022-08-01T09:54:44;2.40;;;2.40;;
1959;SDS011;980;43.794;11.212;2022-08-01T09:57:17;3.00;;;3.00;;
1959;SDS011;980;43.794;11.212;2022-08-01T09:59:44;2.20;;;2.20;;
1959;SDS011;980;43.794;11.212;2022-08-01T10:02:13;2.80;;;2.80;;
1959;SDS011;980;43.794;11.212;2022-08-01T10:04:50;2.40;;;2.40;;
1959;SDS011;980;43.794;11.212;2022-08-01T10:07:16;3.00;;;3.00;;
1959;SDS011;980;43.794;11.212;2022-08-01T10:09:42;3.00;;;3.00;;
1959;SDS011;980;43.794;11.212;2022-08-01T10:12:08;1.60;;;1.60;;
1959;SDS011;980;43.794;11.212;2022-08-01T10:14:34;3.00;;;2.00;;
1959;SDS011;980;43.794;11.212;2022-08-01T10:17:01;2.00;;;2.00;;
1959;SDS011;980;43.794;11.212;2022-08-01T10:19:27;2.00;;;1.00;;
1959;SDS011;980;43.794;11.212;2022-08-01T10:21:53;1.80;;;1.80;;
1959;SDS011;980;43.794;11.212;2022-08-01T10:24:22;2.00;;;2.00;;
1959;SDS011;980;43.794;11.212;2022-08-01T10:26:48;2.40;;;2.40;;
1959;SDS011;980;43.794;11.212;2022-08-01T10:29:16;2.60;;;2.60;;
1959;SDS011;980;43.794;11.212;2022-08-01T10:31:44;2.80;;;2.80;;
1959;SDS011;980;43.794;11.212;2022-08-01T10:34:09;3.50;;;3.00;;
1959;SDS011;980;43.794;11.212;2022-08-01T10:36:36;2.00;;;2.00;;
1959;SDS011;980;43.794;11.212;2022-08-01T10:39:04;1.80;;;1.80;;
1959;SDS011;980;43.794;11.212;2022-08-01T10:41:30;2.20;;;2.20;;
1959;SDS011;980;43.794;11.212;2022-08-01T10:43:55;3.00;;;3.00;;
1959;SDS011;980;43.794;11.212;2022-08-01T10:46:21;4.60;;;3.80;;
1959;SDS011;980;43.794;11.212;2022-08-01T10:51:31;4.00;;;4.00;;
1959;SDS011;980;43.794;11.212;2022-08-01T10:53:59;2.80;;;2.80;;
1959;SDS011;980;43.794;11.212;2022-08-01T10:56:39;4.00;;;4.00;;
1959;SDS011;980;43.794;11.212;2022-08-01T10:59:05;4.00;;;4.00;;
1959;SDS011;980;43.794;11.212;2022-08-01T11:01:30;4.50;;;3.25;;
1959;SDS011;980;43.794;11.212;2022-08-01T11:04:03;4.00;;;4.00;;
1959;SDS011;980;43.794;11.212;2022-08-01T11:08:57;4.80;;;4.80;;
1959;SDS011;980;43.794;11.212;2022-08-01T11:11:23;3.00;;;3.00;;
1959;SDS011;980;43.794;11.212;2022-08-01T11:16:26;3.00;;;3.00;;
1959;SDS011;980;43.794;11.212;2022-08-01T11:18:51;4.60;;;4.40;;
1959;SDS011;980;43.794;11.212;2022-08-01T11:21:17;5.00;;;4.00;;
1959;SDS011;980;43.794;11.212;2022-08-01T11:23:47;5.00;;;5.00;;
1959;SDS011;980;43.794;11.212;2022-08-01T11:26:13;4.00;;;4.00;;
1959;SDS011;980;43.794;11.212;2022-08-01T11:28:39;4.40;;;4.40;;
1959;SDS011;980;43.794;11.212;2022-08-01T11:38:35;5.00;;;5.00;;
1959;SDS011;980;43.794;11.212;2022-08-01T11:41:17;5.00;;;4.00;;
1959;SDS011;980;43.794;11.212;2022-08-01T11:52:16;5.75;;;5.00;;
1959;SDS011;980;43.794;11.212;2022-08-01T11:54:46;5.00;;;4.00;;
1959;SDS011;980;43.794;11.212;2022-08-01T11:57:17;5.40;;;5.40;;
1959;SDS011;980;43.794;11.212;2022-08-01T12:02:16;5.60;;;4.80;;
1959;SDS011;980;43.794;11.212;2022-08-01T12:04:49;4.40;;;4.40;;
1959;SDS011;980;43.794;11.212;2022-08-01T12:07:15;6.80;;;6.00;;
1959;SDS011;980;43.794;11.212;2022-08-01T12:09:40;4.60;;;4.60;;
1959;SDS011;980;43.794;11.212;2022-08-01T12:12:06;4.00;;;4.00;;
1959;SDS011;980;43.794;11.212;2022-08-01T12:14:31;4.00;;;4.00;;
1959;SDS011;980;43.794;11.212;2022-08-01T12:16:57;6.50;;;4.50;;
1959;SDS011;980;43.794;11.212;2022-08-01T12:19:23;4.00;;;4.00;;
1959;SDS011;980;43.794;11.212;2022-08-01T12:22:04;4.00;;;4.00;;
1959;SDS011;980;43.794;11.212;2022-08-01T12:24:31;4.40;;;4.40;;
1959;SDS011;980;43.794;11.212;2022-08-01T12:26:57;4.33;;;4.33;;
1959;SDS011;980;43.794;11.212;2022-08-01T12:29:32;5.00;;;5.00;;
1959;SDS011;980;43.794;11.212;2022-08-01T12:31:57;5.00;;;5.00;;
1959;SDS011;980;43.794;11.212;2022-08-01T12:34:29;6.33;;;4.00;;
1959;SDS011;980;43.794;11.212;2022-08-01T12:36:55;4.40;;;4.40;;
1959;SDS011;980;43.794;11.212;2022-08-01T12:39:21;5.25;;;5.00;;
1959;SDS011;980;43.794;11.212;2022-08-01T12:41:46;4.00;;;4.00;;
1959;SDS011;980;43.794;11.212;2022-08-01T12:44:12;3.67;;;3.00;;
1959;SDS011;980;43.794;11.212;2022-08-01T12:46:39;3.00;;;3.00;;
1959;SDS011;980;43.794;11.212;2022-08-01T12:49:05;4.00;;;4.00;;
1959;SDS011;980;43.794;11.212;2022-08-01T12:51:30;3.75;;;3.75;;
1959;SDS011;980;43.794;11.212;2022-08-01T12:53:58;4.00;;;4.00;;
1959;SDS011;980;43.794;11.212;2022-08-01T12:56:30;4.40;;;4.40;;
1959;SDS011;980;43.794;11.212;2022-08-01T12:58:56;3.50;;;3.50;;
1959;SDS011;980;43.794;11.212;2022-08-01T13:01:25;4.25;;;4.25;;
1959;SDS011;980;43.794;11.212;2022-08-01T13:04:02;4.00;;;4.00;;
1959;SDS011;980;43.794;11.212;2022-08-01T13:06:31;4.25;;;4.25;;
1959;SDS011;980;43.794;11.212;2022-08-01T13:09:04;4.00;;;4.00;;
1959;SDS011;980;43.794;11.212;2022-08-01T13:11:30;4.00;;;4.00;;
1959;SDS011;980;43.794;11.212;2022-08-01T13:13:55;4.75;;;3.00;;
1959;SDS011;980;43.794;11.212;2022-08-01T13:16:24;3.00;;;3.00;;
1959;SDS011;980;43.794;11.212;2022-08-01T13:18:50;3.00;;;3.00;;
1959;SDS011;980;43.794;11.212;2022-08-01T13:24:06;3.60;;;3.00;;
1959;SDS011;980;43.794;11.212;2022-08-01T13:29:15;3.00;;;3.00;;
1959;SDS011;980;43.794;11.212;2022-08-01T13:31:41;5.00;;;5.00;;
1959;SDS011;980;43.794;11.212;2022-08-01T13:34:06;4.50;;;4.50;;
1959;SDS011;980;43.794;11.212;2022-08-01T13:36:32;4.40;;;4.40;;
1959;SDS011;980;43.794;11.212;2022-08-01T13:38:58;5.00;;;3.00;;
1959;SDS011;980;43.794;11.212;2022-08-01T13:41:42;3.60;;;3.60;;
1959;SDS011;980;43.794;11.212;2022-08-01T13:44:08;4.00;;;4.00;;
1959;SDS011;980;43.794;11.212;2022-08-01T13:46:35;4.00;;;4.00;;
1959;SDS011;980;43.794;11.212;2022-08-01T13:49:01;4.00;;;4.00;;
1959;SDS011;980;43.794;11.212;2022-08-01T13:51:27;3.75;;;3.75;;
1959;SDS011;980;43.794;11.212;2022-08-01T13:53:52;3.33;;;3.33;;
1959;SDS011;980;43.794;11.212;2022-08-01T13:56:18;4.33;;;4.33;;
1959;SDS011;980;43.794;11.212;2022-08-01T13:58:44;2.00;;;2.00;;
1959;SDS011;980;43.794;11.212;2022-08-01T14:01:10;3.33;;;3.33;;
1959;SDS011;980;43.794;11.212;2022-08-01T14:03:35;3.25;;;3.25;;
1959;SDS011;980;43.794;11.212;2022-08-01T14:06:01;4.25;;;4.00;;
1959;SDS011;980;43.794;11.212;2022-08-01T14:08:26;4.50;;;4.50;;
1959;SDS011;980;43.794;11.212;2022-08-01T14:10:51;2.00;;;2.00;;
1959;SDS011;980;43.794;11.212;2022-08-01T14:13:18;5.40;;;5.40;;
1959;SDS011;980;43.794;11.212;2022-08-01T14:15:43;4.00;;;4.00;;
1959;SDS011;980;43.794;11.212;2022-08-01T14:18:09;4.00;;;4.00;;
1959;SDS011;980;43.794;11.212;2022-08-01T14:20:34;4.00;;;4.00;;
1959;SDS011;980;43.794;11.212;2022-08-01T14:23:00;3.00;;;3.00;;
1959;SDS011;980;43.794;11.212;2022-08-01T14:25:25;3.00;;;3.00;;
1959;SDS011;980;43.794;11.212;2022-08-01T14:27:50;4.00;;;4.00;;
1959;SDS011;980;43.794;11.212;2022-08-01T14:30:16;3.50;;;3.50;;
1959;SDS011;980;43.794;11.212;2022-08-01T14:32:41;4.50;;;4.50;;
1959;SDS011;980;43.794;11.212;2022-08-01T14:35:06;3.00;;;3.00;;
1959;SDS011;980;43.794;11.212;2022-08-01T14:37:32;2.75;;;2.75;;
1959;SDS011;980;43.794;11.212;2022-08-01T14:39:58;4.25;;;4.00;;
1959;SDS011;980;43.794;11.212;2022-08-01T14:42:23;5.00;;;5.00;;
1959;SDS011;980;43.794;11.212;2022-08-01T14:44:49;3.00;;;3.00;;
1959;SDS011;980;43.794;11.212;2022-08-01T14:47:15;3.80;;;3.80;;
1959;SDS011;980;43.794;11.212;2022-08-01T14:49:40;4.50;;;4.50;;
1959;SDS011;980;43.794;11.212;2022-08-01T14:52:05;4.00;;;4.00;;
1959;SDS011;980;43.794;11.212;2022-08-01T14:54:31;4.75;;;4.00;;
1959;SDS011;980;43.794;11.212;2022-08-01T14:56:56;3.75;;;3.75;;
1959;SDS011;980;43.794;11.212;2022-08-01T14:59:21;4.00;;;4.00;;
1959;SDS011;980;43.794;11.212;2022-08-01T15:01:47;5.00;;;5.00;;
1959;SDS011;980;43.794;11.212;2022-08-01T15:04:12;4.50;;;4.50;;
1959;SDS011;980;43.794;11.212;2022-08-01T15:06:37;6.00;;;5.00;;
1959;SDS011;980;43.794;11.212;2022-08-01T15:09:03;5.25;;;5.00;;
1959;SDS011;980;43.794;11.212;2022-08-01T15:11:28;4.50;;;4.50;;
1959;SDS011;980;43.794;11.212;2022-08-01T15:13:53;4.00;;;4.00;;
1959;SDS011;980;43.794;11.212;2022-08-01T15:16:37;4.20;;;4.20;;
1959;SDS011;980;43.794;11.212;2022-08-01T15:19:02;3.50;;;3.50;;
1959;SDS011;980;43.794;11.212;2022-08-01T15:21:28;5.00;;;5.00;;
1959;SDS011;980;43.794;11.212;2022-08-01T15:23:53;5.75;;;5.75;;
1959;SDS011;980;43.794;11.212;2022-08-01T15:26:18;4.50;;;4.50;;
1959;SDS011;980;43.794;11.212;2022-08-01T15:28:44;6.00;;;6.00;;
1959;SDS011;980;43.794;11.212;2022-08-01T15:31:09;8.33;;;8.33;;
1959;SDS011;980;43.794;11.212;2022-08-01T15:33:34;9.00;;;9.00;;
1959;SDS011;980;43.794;11.212;2022-08-01T15:35:59;8.00;;;7.00;;
1959;SDS011;980;43.794;11.212;2022-08-01T15:38:25;9.67;;;8.33;;
1959;SDS011;980;43.794;11.212;2022-08-01T15:40:50;8.00;;;8.00;;
1959;SDS011;980;43.794;11.212;2022-08-01T15:43:16;8.67;;;7.33;;
1959;SDS011;980;43.794;11.212;2022-08-01T15:45:42;7.00;;;6.00;;
1959;SDS011;980;43.794;11.212;2022-08-01T15:48:07;8.67;;;8.67;;
1959;SDS011;980;43.794;11.212;2022-08-01T15:50:32;11.00;;;9.67;;
1959;SDS011;980;43.794;11.212;2022-08-01T15:52:58;9.67;;;8.00;;
1959;SDS011;980;43.794;11.212;2022-08-01T15:55:23;5.33;;;4.67;;
1959;SDS011;980;43.794;11.212;2022-08-01T15:57:48;7.67;;;7.67;;
1959;SDS011;980;43.794;11.212;2022-08-01T16:00:13;5.00;;;5.00;;
1959;SDS011;980;43.794;11.212;2022-08-01T16:02:39;6.00;;;4.00;;
1959;SDS011;980;43.794;11.212;2022-08-01T16:05:05;6.00;;;4.33;;
1959;SDS011;980;43.794;11.212;2022-08-01T16:07:30;6.00;;;6.00;;
1959;SDS011;980;43.794;11.212;2022-08-01T16:09:56;4.67;;;4.67;;
1959;SDS011;980;43.794;11.212;2022-08-01T16:12:22;4.00;;;3.00;;
1959;SDS011;980;43.794;11.212;2022-08-01T16:14:47;7.00;;;5.00;;
1959;SDS011;980;43.794;11.212;2022-08-01T16:17:13;2.00;;;2.00;;
1959;SDS011;980;43.794;11.212;2022-08-01T16:19:38;5.33;;;5.33;;
1959;SDS011;980;43.794;11.212;2022-08-01T16:22:04;9.00;;;7.00;;
1959;SDS011;980;43.794;11.212;2022-08-01T16:24:30;6.33;;;6.33;;
1959;SDS011;980;43.794;11.212;2022-08-01T16:26:55;5.00;;;5.00;;
1959;SDS011;980;43.794;11.212;2022-08-01T16:29:20;6.33;;;4.67;;
1959;SDS011;980;43.794;11.212;2022-08-01T16:31:46;10.67;;;6.00;;
1959;SDS011;980;43.794;11.212;2022-08-01T16:34:11;5.00;;;5.00;;
1959;SDS011;980;43.794;11.212;2022-08-01T16:36:37;7.00;;;7.00;;
1959;SDS011;980;43.794;11.212;2022-08-01T16:39:02;6.67;;;6.67;;
1959;SDS011;980;43.794;11.212;2022-08-01T16:41:29;7.00;;;5.50;;
1959;SDS011;980;43.794;11.212;2022-08-01T16:43:54;17.33;;;16.33;;
1959;SDS011;980;43.794;11.212;2022-08-01T16:46:20;23.00;;;23.00;;
1959;SDS011;980;43.794;11.212;2022-08-01T16:48:46;32.67;;;31.67;;
1959;SDS011;980;43.794;11.212;2022-08-01T16:51:11;28.33;;;27.33;;
1959;SDS011;980;43.794;11.212;2022-08-01T16:53:36;18.00;;;18.00;;
1959;SDS011;980;43.794;11.212;2022-08-01T16:56:02;20.00;;;17.67;;
1959;SDS011;980;43.794;11.212;2022-08-01T16:58:27;18.67;;;18.67;;
1959;SDS011;980;43.794;11.212;2022-08-01T17:00:54;11.33;;;11.33;;
1959;SDS011;980;43.794;11.212;2022-08-01T17:03:19;16.25;;;15.25;;
1959;SDS011;980;43.794;11.212;2022-08-01T17:05:47;20.25;;;20.25;;
1959;SDS011;980;43.794;11.212;2022-08-01T17:08:12;17.33;;;16.00;;
1959;SDS011;980;43.794;11.212;2022-08-01T17:10:37;11.33;;;10.33;;
1959;SDS011;980;43.794;11.212;2022-08-01T17:13:03;9.00;;;8.67;;
1959;SDS011;980;43.794;11.212;2022-08-01T17:15:28;16.00;;;14.00;;
1959;SDS011;980;43.794;11.212;2022-08-01T17:17:54;12.00;;;12.00;;
1959;SDS011;980;43.794;11.212;2022-08-01T17:20:20;8.67;;;8.00;;
1959;SDS011;980;43.794;11.212;2022-08-01T17:22:45;8.67;;;8.33;;
1959;SDS011;980;43.794;11.212;2022-08-01T17:25:11;11.00;;;11.00;;
1959;SDS011;980;43.794;11.212;2022-08-01T17:27:36;10.33;;;9.33;;
1959;SDS011;980;43.794;11.212;2022-08-01T17:30:01;13.67;;;12.00;;
1959;SDS011;980;43.794;11.212;2022-08-01T17:32:26;12.67;;;11.67;;
1959;SDS011;980;43.794;11.212;2022-08-01T17:34:52;7.00;;;7.00;;
1959;SDS011;980;43.794;11.212;2022-08-01T17:37:17;3.33;;;2.67;;
1959;SDS011;980;43.794;11.212;2022-08-01T17:39:42;7.00;;;6.00;;
1959;SDS011;980;43.794;11.212;2022-08-01T17:42:08;8.00;;;8.00;;
1959;SDS011;980;43.794;11.212;2022-08-01T17:44:34;2.50;;;2.50;;
1959;SDS011;980;43.794;11.212;2022-08-01T17:47:00;9.33;;;9.33;;
1959;SDS011;980;43.794;11.212;2022-08-01T17:49:25;6.00;;;5.00;;
1959;SDS011;980;43.794;11.212;2022-08-01T17:51:50;5.67;;;5.67;;
1959;SDS011;980;43.794;11.212;2022-08-01T17:54:16;4.00;;;4.00;;
1959;SDS011;980;43.794;11.212;2022-08-01T17:56:41;4.00;;;4.00;;
1959;SDS011;980;43.794;11.212;2022-08-01T17:59:06;4.67;;;4.00;;
1959;SDS011;980;43.794;11.212;2022-08-01T18:01:32;4.00;;;4.00;;
1959;SDS011;980;43.794;11.212;2022-08-01T18:03:59;5.50;;;5.50;;
1959;SDS011;980;43.794;11.212;2022-08-01T18:06:24;5.00;;;4.00;;
1959;SDS011;980;43.794;11.212;2022-08-01T18:08:52;4.67;;;4.00;;
1959;SDS011;980;43.794;11.212;2022-08-01T18:11:19;12.25;;;9.75;;
1959;SDS011;980;43.794;11.212;2022-08-01T18:13:45;14.33;;;12.00;;
1959;SDS011;980;43.794;11.212;2022-08-01T18:16:10;9.67;;;8.00;;
1959;SDS011;980;43.794;11.212;2022-08-01T18:18:37;5.25;;;5.25;;
1959;SDS011;980;43.794;11.212;2022-08-01T18:21:03;11.75;;;10.25;;
1959;SDS011;980;43.794;11.212;2022-08-01T18:23:28;11.00;;;10.00;;
1959;SDS011;980;43.794;11.212;2022-08-01T18:25:54;9.00;;;9.00;;
1959;SDS011;980;43.794;11.212;2022-08-01T18:28:19;7.33;;;5.67;;
1959;SDS011;980;43.794;11.212;2022-08-01T18:30:44;13.00;;;11.00;;
1959;SDS011;980;43.794;11.212;2022-08-01T18:33:10;8.33;;;7.33;;
1959;SDS011;980;43.794;11.212;2022-08-01T18:35:35;7.67;;;5.00;;
1959;SDS011;980;43.794;11.212;2022-08-01T18:38:00;4.00;;;3.00;;
1959;SDS011;980;43.794;11.212;2022-08-01T18:40:26;6.00;;;6.00;;
1959;SDS011;980;43.794;11.212;2022-08-01T18:42:51;4.00;;;4.00;;
1959;SDS011;980;43.794;11.212;2022-08-01T18:45:18;6.50;;;4.25;;
1959;SDS011;980;43.794;11.212;2022-08-01T18:47:43;4.33;;;4.00;;
1959;SDS011;980;43.794;11.212;2022-08-01T18:50:12;4.00;;;4.00;;
1959;SDS011;980;43.794;11.212;2022-08-01T18:52:37;4.00;;;4.00;;
1959;SDS011;980;43.794;11.212;2022-08-01T18:55:03;2.00;;;2.00;;
1959;SDS011;980;43.794;11.212;2022-08-01T18:57:28;3.00;;;3.00;;
1959;SDS011;980;43.794;11.212;2022-08-01T18:59:53;4.00;;;4.00;;
1959;SDS011;980;43.794;11.212;2022-08-01T19:02:19;5.00;;;3.00;;
1959;SDS011;980;43.794;11.212;2022-08-01T19:04:44;4.00;;;4.00;;
1959;SDS011;980;43.794;11.212;2022-08-01T19:07:10;3.33;;;3.33;;
1959;SDS011;980;43.794;11.212;2022-08-01T19:09:35;3.00;;;3.00;;
1959;SDS011;980;43.794;11.212;2022-08-01T19:12:01;2.00;;;2.00;;
1959;SDS011;980;43.794;11.212;2022-08-01T19:14:28;3.00;;;3.00;;
1959;SDS011;980;43.794;11.212;2022-08-01T19:16:53;3.00;;;3.00;;
1959;SDS011;980;43.794;11.212;2022-08-01T19:19:20;3.00;;;3.00;;
1959;SDS011;980;43.794;11.212;2022-08-01T19:21:45;3.33;;;3.00;;
1959;SDS011;980;43.794;11.212;2022-08-01T19:24:11;6.00;;;4.67;;
1959;SDS011;980;43.794;11.212;2022-08-01T19:27:06;3.25;;;3.00;;
1959;SDS011;980;43.794;11.212;2022-08-01T19:29:34;4.75;;;3.50;;
1959;SDS011;980;43.794;11.212;2022-08-01T19:32:00;3.00;;;3.00;;
1959;SDS011;980;43.794;11.212;2022-08-01T19:34:26;4.00;;;4.00;;
1959;SDS011;980;43.794;11.212;2022-08-01T19:36:53;5.00;;;5.00;;
1959;SDS011;980;43.794;11.212;2022-08-01T19:39:20;4.00;;;4.00;;
1959;SDS011;980;43.794;11.212;2022-08-01T19:41:48;4.00;;;4.00;;
1959;SDS011;980;43.794;11.212;2022-08-01T19:44:15;4.75;;;4.50;;
1959;SDS011;980;43.794;11.212;2022-08-01T19:46:41;6.00;;;4.00;;
1959;SDS011;980;43.794;11.212;2022-08-01T19:49:07;4.00;;;4.00;;
1959;SDS011;980;43.794;11.212;2022-08-01T19:51:36;3.25;;;3.25;;
1959;SDS011;980;43.794;11.212;2022-08-01T19:54:04;5.25;;;4.25;;
1959;SDS011;980;43.794;11.212;2022-08-01T19:56:34;2.75;;;2.75;;
1959;SDS011;980;43.794;11.212;2022-08-01T19:59:01;4.00;;;3.00;;
1959;SDS011;980;43.794;11.212;2022-08-01T20:01:28;5.00;;;3.00;;
1959;SDS011;980;43.794;11.212;2022-08-01T20:03:54;3.00;;;3.00;;
1959;SDS011;980;43.794;11.212;2022-08-01T20:06:19;4.33;;;4.33;;
1959;SDS011;980;43.794;11.212;2022-08-01T20:08:45;2.67;;;2.67;;
1959;SDS011;980;43.794;11.212;2022-08-01T20:11:10;3.00;;;3.00;;
1959;SDS011;980;43.794;11.212;2022-08-01T20:13:36;3.00;;;3.00;;
1959;SDS011;980;43.794;11.212;2022-08-01T20:16:02;3.50;;;3.50;;
1959;SDS011;980;43.794;11.212;2022-08-01T20:18:28;6.00;;;5.00;;
1959;SDS011;980;43.794;11.212;2022-08-01T20:20:53;2.00;;;2.00;;
1959;SDS011;980;43.794;11.212;2022-08-01T20:23:20;3.33;;;3.33;;
1959;SDS011;980;43.794;11.212;2022-08-01T20:25:47;4.50;;;3.75;;
1959;SDS011;980;43.794;11.212;2022-08-01T20:28:13;3.25;;;3.25;;
1959;SDS011;980;43.794;11.212;2022-08-01T20:30:39;3.00;;;3.00;;
1959;SDS011;980;43.794;11.212;2022-08-01T20:33:05;3.25;;;3.25;;
1959;SDS011;980;43.794;11.212;2022-08-01T20:35:31;3.00;;;3.00;;
1959;SDS011;980;43.794;11.212;2022-08-01T20:37:56;4.00;;;4.00;;
1959;SDS011;980;43.794;11.212;2022-08-01T20:40:22;4.00;;;4.00;;
1959;SDS011;980;43.794;11.212;2022-08-01T20:42:48;5.00;;;5.00;;
1959;SDS011;980;43.794;11.212;2022-08-01T20:45:14;4.25;;;4.25;;
1959;SDS011;980;43.794;11.212;2022-08-01T20:47:40;4.00;;;4.00;;
1959;SDS011;980;43.794;11.212;2022-08-01T20:50:06;5.00;;;5.00;;
1959;SDS011;980;43.794;11.212;2022-08-01T20:52:50;2.25;;;2.25;;
1959;SDS011;980;43.794;11.212;2022-08-01T20:55:16;4.00;;;4.00;;
1959;SDS011;980;43.794;11.212;2022-08-01T20:57:43;5.33;;;5.00;;
1959;SDS011;980;43.794;11.212;2022-08-01T21:00:09;4.00;;;4.00;;
1959;SDS011;980;43.794;11.212;2022-08-01T21:02:38;5.00;;;5.00;;
1959;SDS011;980;43.794;11.212;2022-08-01T21:05:11;4.75;;;4.75;;
1959;SDS011;980;43.794;11.212;2022-08-01T21:10:10;5.25;;;4.25;;
1959;SDS011;980;43.794;11.212;2022-08-01T21:15:20;4.00;;;4.00;;
1959;SDS011;980;43.794;11.212;2022-08-01T21:17:56;4.00;;;4.00;;
1959;SDS011;980;43.794;11.212;2022-08-01T21:20:26;5.00;;;4.00;;
1959;SDS011;980;43.794;11.212;2022-08-01T21:25:22;4.00;;;4.00;;
1959;SDS011;980;43.794;11.212;2022-08-01T21:27:50;4.25;;;4.25;;
1959;SDS011;980;43.794;11.212;2022-08-01T21:30:16;5.25;;;4.00;;
1959;SDS011;980;43.794;11.212;2022-08-01T21:32:41;4.67;;;4.67;;
1959;SDS011;980;43.794;11.212;2022-08-01T21:35:07;4.33;;;4.33;;
1959;SDS011;980;43.794;11.212;2022-08-01T21:37:32;6.00;;;5.00;;
1959;SDS011;980;43.794;11.212;2022-08-01T21:40:00;3.25;;;3.25;;
1959;SDS011;980;43.794;11.212;2022-08-01T21:42:26;4.00;;;4.00;;
1959;SDS011;980;43.794;11.212;2022-08-01T21:44:52;5.33;;;4.00;;
1959;SDS011;980;43.794;11.212;2022-08-01T21:47:18;5.00;;;5.00;;
1959;SDS011;980;43.794;11.212;2022-08-01T21:49:43;4.67;;;3.00;;
1959;SDS011;980;43.794;11.212;2022-08-01T21:52:15;4.00;;;4.00;;
1959;SDS011;980;43.794;11.212;2022-08-01T22:00:11;3.00;;;3.00;;
1959;SDS011;980;43.794;11.212;2022-08-01T22:02:43;3.00;;;3.00;;
1959;SDS011;980;43.794;11.212;2022-08-01T22:05:09;3.00;;;3.00;;
1959;SDS011;980;43.794;11.212;2022-08-01T22:07:40;6.00;;;4.25;;
1959;SDS011;980;43.794;11.212;2022-08-01T22:10:08;3.00;;;3.00;;
1959;SDS011;980;43.794;11.212;2022-08-01T22:12:36;4.00;;;4.00;;
1959;SDS011;980;43.794;11.212;2022-08-01T22:15:03;3.00;;;3.00;;
1959;SDS011;980;43.794;11.212;2022-08-01T22:17:29;4.00;;;4.00;;
1959;SDS011;980;43.794;11.212;2022-08-01T22:19:55;3.00;;;3.00;;
1959;SDS011;980;43.794;11.212;2022-08-01T22:22:21;4.33;;;3.33;;
1959;SDS011;980;43.794;11.212;2022-08-01T22:24:47;4.00;;;4.00;;
1959;SDS011;980;43.794;11.212;2022-08-01T22:27:13;4.50;;;4.50;;
1959;SDS011;980;43.794;11.212;2022-08-01T22:30:01;3.25;;;3.25;;
1959;SDS011;980;43.794;11.212;2022-08-01T22:32:37;4.75;;;4.75;;
1959;SDS011;980;43.794;11.212;2022-08-01T22:35:03;5.75;;;5.75;;
1959;SDS011;980;43.794;11.212;2022-08-01T22:37:29;5.50;;;4.00;;
1959;SDS011;980;43.794;11.212;2022-08-01T22:39:58;4.67;;;4.33;;
1959;SDS011;980;43.794;11.212;2022-08-01T22:42:30;7.50;;;4.00;;
1959;SDS011;980;43.794;11.212;2022-08-01T22:47:25;6.00;;;6.00;;
1959;SDS011;980;43.794;11.212;2022-08-01T22:50:02;7.00;;;6.50;;
1959;SDS011;980;43.794;11.212;2022-08-01T22:52:29;13.00;;;10.50;;
1959;SDS011;980;43.794;11.212;2022-08-01T22:55:05;7.33;;;6.67;;
1959;SDS011;980;43.794;11.212;2022-08-01T22:57:39;8.00;;;6.00;;
1959;SDS011;980;43.794;11.212;2022-08-01T23:00:07;5.75;;;5.75;;
1959;SDS011;980;43.794;11.212;2022-08-01T23:02:35;6.25;;;6.25;;
1959;SDS011;980;43.794;11.212;2022-08-01T23:05:03;9.00;;;8.00;;
1959;SDS011;980;43.794;11.212;2022-08-01T23:07:31;6.00;;;6.00;;
1959;SDS011;980;43.794;11.212;2022-08-01T23:09:56;6.50;;;5.25;;
1959;SDS011;980;43.794;11.212;2022-08-01T23:12:23;5.00;;;5.00;;
1959;SDS011;980;43.794;11.212;2022-08-01T23:14:50;6.25;;;5.75;;
1959;SDS011;980;43.794;11.212;2022-08-01T23:17:16;8.00;;;7.00;;
1959;SDS011;980;43.794;11.212;2022-08-01T23:19:43;3.50;;;3.50;;
1959;SDS011;980;43.794;11.212;2022-08-01T23:22:08;5.00;;;5.00;;
1959;SDS011;980;43.794;11.212;2022-08-01T23:24:34;5.00;;;4.00;;
1959;SDS011;980;43.794;11.212;2022-08-01T23:26:59;5.33;;;5.33;;
1959;SDS011;980;43.794;11.212;2022-08-01T23:29:45;6.25;;;6.00;;
1959;SDS011;980;43.794;11.212;2022-08-01T23:32:11;6.25;;;6.25;;
1959;SDS011;980;43.794;11.212;2022-08-01T23:34:37;5.67;;;5.67;;
1959;SDS011;980;43.794;11.212;2022-08-01T23:37:02;5.33;;;5.33;;
1959;SDS011;980;43.794;11.212;2022-08-01T23:39:27;8.67;;;6.00;;
1959;SDS011;980;43.794;11.212;2022-08-01T23:41:52;6.67;;;6.00;;
1959;SDS011;980;43.794;11.212;2022-08-01T23:44:18;6.33;;;5.33;;
1959;SDS011;980;43.794;11.212;2022-08-01T23:46:43;6.00;;;6.00;;
1959;SDS011;980;43.794;11.212;2022-08-01T23:49:08;5.00;;;5.00;;
1959;SDS011;980;43.794;11.212;2022-08-01T23:51:33;5.33;;;5.33;;
1959;SDS011;980;43.794;11.212;2022-08-01T23:53:59;5.00;;;5.00;;
1959;SDS011;980;43.794;11.212;2022-08-01T23:56:24;4.00;;;4.00;;
1959;SDS011;980;43.794;11.212;2022-08-01T23:58:49;5.33;;;5.33;;
